sensor_id;sensor_type;location;lat;lon;timestamp;pressure;altitude;pressure_sealevel;temperature;humidity
50933;BME280;36921;49.006;9.292;2023-02-03T00:00:27;100009.47;;;6.01;100.00
50933;BME280;36921;49.006;9.292;2023-02-03T00:02:54;100007.78;;;6.00;100.00
50933;BME280;36921;49.006;9.292;2023-02-03T00:05:20;100000.56;;;6.01;100.00
50933;BME280;36921;49.006;9.292;2023-02-03T00:07:46;100007.34;;;6.05;100.00
50933;BME280;36921;49.006;9.292;2023-02-03T00:10:12;100010.31;;;6.02;100.00
50933;BME280;36921;49.006;9.292;2023-02-03T00:12:38;100005.78;;;6.02;100.00
50933;BME280;36921;49.006;9.292;2023-02-03T00:15:03;100022.19;;;5.99;100.00
50933;BME280;36921;49.006;9.292;2023-02-03T00:17:29;100012.88;;;6.03;100.00
50933;BME280;36921;49.006;9.292;2023-02-03T00:19:54;100016.69;;;6.01;100.00
50933;BME280;36921;49.006;9.292;2023-02-03T00:22:20;100008.34;;;6.04;100.00
50933;BME280;36921;49.006;9.292;2023-02-03T00:24:45;100005.94;;;6.01;100.00
50933;BME280;36921;49.006;9.292;2023-02-03T00:27:10;100008.06;;;6.07;100.00
50933;BME280;36921;49.006;9.292;2023-02-03T00:29:36;100007.34;;;6.05;100.00
50933;BME280;36921;49.006;9.292;2023-02-03T00:32:01;100006.66;;;6.03;100.00
50933;BME280;36921;49.006;9.292;2023-02-03T00:34:28;100011.88;;;6.04;100.00
50933;BME280;36921;49.006;9.292;2023-02-03T00:36:56;100025.31;;;6.04;100.00
50933;BME280;36921;49.006;9.292;2023-02-03T00:39:22;100031.56;;;5.95;100.00
50933;BME280;36921;49.006;9.292;2023-02-03T00:41:48;100037.47;;;5.99;100.00
50933;BME280;36921;49.006;9.292;2023-02-03T00:44:13;100034.91;;;5.97;100.00
50933;BME280;36921;49.006;9.292;2023-02-03T00:46:39;100022.19;;;5.99;100.00
50933;BME280;36921;49.006;9.292;2023-02-03T00:49:05;100022.06;;;6.01;100.00
50933;BME280;36921;49.006;9.292;2023-02-03T00:51:32;100020.09;;;6.03;100.00
50933;BME280;36921;49.006;9.292;2023-02-03T00:53:57;100034.50;;;6.02;100.00
50933;BME280;36921;49.006;9.292;2023-02-03T00:56:23;100038.31;;;5.99;100.00
50933;BME280;36921;49.006;9.292;2023-02-03T00:58:48;100037.91;;;6.04;100.00
50933;BME280;36921;49.006;9.292;2023-02-03T01:01:14;100041.16;;;5.98;100.00
50933;BME280;36921;49.006;9.292;2023-02-03T01:03:39;100031.81;;;6.02;100.00
50933;BME280;36921;49.006;9.292;2023-02-03T01:06:16;100025.06;;;5.98;100.00
50933;BME280;36921;49.006;9.292;2023-02-03T01:08:42;99999.88;;;5.99;100.00
50933;BME280;36921;49.006;9.292;2023-02-03T01:11:39;99991.09;;;5.97;100.00
50933;BME280;36921;49.006;9.292;2023-02-03T01:14:04;99986.44;;;5.99;100.00
50933;BME280;36921;49.006;9.292;2023-02-03T01:16:30;100001.41;;;6.01;100.00
50933;BME280;36921;49.006;9.292;2023-02-03T01:18:55;100008.63;;;6.01;100.00
50933;BME280;36921;49.006;9.292;2023-02-03T01:21:23;100008.63;;;6.01;100.00
50933;BME280;36921;49.006;9.292;2023-02-03T01:23:49;99997.59;;;6.04;100.00
50933;BME280;36921;49.006;9.292;2023-02-03T01:26:18;100006.19;;;6.07;100.00
50933;BME280;36921;49.006;9.292;2023-02-03T01:28:49;99988.53;;;6.05;100.00
50933;BME280;36921;49.006;9.292;2023-02-03T01:31:17;99993.22;;;6.03;100.00
50933;BME280;36921;49.006;9.292;2023-02-03T01:33:43;99992.81;;;5.98;100.00
50933;BME280;36921;49.006;9.292;2023-02-03T01:36:14;99991.25;;;5.95;100.00
50933;BME280;36921;49.006;9.292;2023-02-03T01:38:40;99987.28;;;5.99;100.00
50933;BME280;36921;49.006;9.292;2023-02-03T01:41:09;99991.69;;;6.00;100.00
50933;BME280;36921;49.006;9.292;2023-02-03T01:43:36;99995.03;;;6.02;100.00
50933;BME280;36921;49.006;9.292;2023-02-03T01:48:52;100007.34;;;6.05;100.00
50933;BME280;36921;49.006;9.292;2023-02-03T01:51:19;99998.88;;;6.00;100.00
50933;BME280;36921;49.006;9.292;2023-02-03T01:53:46;100001.56;;;6.00;100.00
50933;BME280;36921;49.006;9.292;2023-02-03T01:56:12;99995.22;;;6.01;100.00
50933;BME280;36921;49.006;9.292;2023-02-03T01:58:39;99996.34;;;5.98;100.00
50933;BME280;36921;49.006;9.292;2023-02-03T02:01:05;99985.72;;;5.97;100.00
50933;BME280;36921;49.006;9.292;2023-02-03T02:03:45;99979.63;;;6.04;100.00
50933;BME280;36921;49.006;9.292;2023-02-03T02:06:13;99971.88;;;6.01;100.00
50933;BME280;36921;49.006;9.292;2023-02-03T02:08:41;99950.38;;;6.01;100.00
50933;BME280;36921;49.006;9.292;2023-02-03T02:11:08;99938.22;;;5.97;100.00
50933;BME280;36921;49.006;9.292;2023-02-03T02:13:34;99930.03;;;5.99;100.00
50933;BME280;36921;49.006;9.292;2023-02-03T02:18:56;99933.41;;;6.01;100.00
50933;BME280;36921;49.006;9.292;2023-02-03T02:21:58;99942.44;;;6.00;100.00
50933;BME280;36921;49.006;9.292;2023-02-03T02:32:46;99883.53;;;5.98;100.00
50933;BME280;36921;49.006;9.292;2023-02-03T02:35:23;99882.50;;;5.99;100.00
50933;BME280;36921;49.006;9.292;2023-02-03T02:38:04;99905.72;;;6.00;100.00
50933;BME280;36921;49.006;9.292;2023-02-03T02:40:59;99919.69;;;6.04;100.00
50933;BME280;36921;49.006;9.292;2023-02-03T02:43:38;99928.34;;;5.98;100.00
50933;BME280;36921;49.006;9.292;2023-02-03T02:46:09;99914.75;;;5.99;100.00
50933;BME280;36921;49.006;9.292;2023-02-03T02:48:43;99901.78;;;5.85;100.00
50933;BME280;36921;49.006;9.292;2023-02-03T02:51:11;99918.44;;;5.88;100.00
50933;BME280;36921;49.006;9.292;2023-02-03T02:53:45;99910.06;;;5.91;100.00
50933;BME280;36921;49.006;9.292;2023-02-03T02:56:13;99898.50;;;5.81;100.00
50933;BME280;36921;49.006;9.292;2023-02-03T02:58:42;99915.34;;;5.83;100.00
50933;BME280;36921;49.006;9.292;2023-02-03T03:01:08;99913.06;;;5.88;100.00
50933;BME280;36921;49.006;9.292;2023-02-03T03:03:34;99890.19;;;5.84;100.00
50933;BME280;36921;49.006;9.292;2023-02-03T03:06:07;99891.56;;;5.88;100.00
50933;BME280;36921;49.006;9.292;2023-02-03T03:09:01;99904.28;;;5.86;100.00
50933;BME280;36921;49.006;9.292;2023-02-03T03:11:32;99887.03;;;5.89;100.00
50933;BME280;36921;49.006;9.292;2023-02-03T03:13:58;99848.09;;;5.65;100.00
50933;BME280;36921;49.006;9.292;2023-02-03T03:16:25;99877.44;;;5.86;100.00
50933;BME280;36921;49.006;9.292;2023-02-03T03:21:25;99885.25;;;5.80;100.00
50933;BME280;36921;49.006;9.292;2023-02-03T03:23:54;99901.78;;;5.85;100.00
50933;BME280;36921;49.006;9.292;2023-02-03T03:26:33;99907.56;;;5.80;100.00
50933;BME280;36921;49.006;9.292;2023-02-03T03:30:05;99912.25;;;5.78;100.00
50933;BME280;36921;49.006;9.292;2023-02-03T03:32:00;99935.69;;;5.86;100.00
50933;BME280;36921;49.006;9.292;2023-02-03T03:34:25;99922.13;;;5.78;100.00
50933;BME280;36921;49.006;9.292;2023-02-03T03:42:12;99956.03;;;5.88;100.00
50933;BME280;36921;49.006;9.292;2023-02-03T03:44:45;99969.34;;;5.90;100.00
50933;BME280;36921;49.006;9.292;2023-02-03T03:47:23;99960.84;;;5.85;100.00
50933;BME280;36921;49.006;9.292;2023-02-03T03:49:52;99965.09;;;5.87;100.00
50933;BME280;36921;49.006;9.292;2023-02-03T03:52:22;99975.84;;;5.87;100.00
50933;BME280;36921;49.006;9.292;2023-02-03T03:54:50;99969.22;;;5.82;100.00
50933;BME280;36921;49.006;9.292;2023-02-03T03:57:25;99956.50;;;5.74;100.00
50933;BME280;36921;49.006;9.292;2023-02-03T03:59:53;99935.16;;;5.63;100.00
50933;BME280;36921;49.006;9.292;2023-02-03T04:02:20;99976.56;;;5.80;100.00
50933;BME280;36921;49.006;9.292;2023-02-03T04:04:47;99951.56;;;5.69;100.00
50933;BME280;36921;49.006;9.292;2023-02-03T04:07:12;99960.56;;;5.68;100.00
50933;BME280;36921;49.006;9.292;2023-02-03T04:09:38;99960.19;;;5.63;100.00
50933;BME280;36921;49.006;9.292;2023-02-03T04:12:14;99979.66;;;5.75;100.00
50933;BME280;36921;49.006;9.292;2023-02-03T04:14:40;99947.03;;;5.60;100.00
50933;BME280;36921;49.006;9.292;2023-02-03T04:17:06;99975.00;;;5.77;100.00
50933;BME280;36921;49.006;9.292;2023-02-03T04:19:31;99965.94;;;5.78;100.00
50933;BME280;36921;49.006;9.292;2023-02-03T04:21:56;99956.50;;;5.74;100.00
50933;BME280;36921;49.006;9.292;2023-02-03T04:24:22;99967.06;;;5.76;100.00
50933;BME280;36921;49.006;9.292;2023-02-03T04:26:47;99943.50;;;5.60;100.00
50933;BME280;36921;49.006;9.292;2023-02-03T04:29:13;99935.44;;;5.50;100.00
50933;BME280;36921;49.006;9.292;2023-02-03T04:31:38;99906.97;;;5.30;100.00
50933;BME280;36921;49.006;9.292;2023-02-03T04:34:04;99950.72;;;5.49;100.00
50933;BME280;36921;49.006;9.292;2023-02-03T04:36:29;99957.50;;;5.54;100.00
50933;BME280;36921;49.006;9.292;2023-02-03T04:38:55;99945.78;;;5.35;100.00
50933;BME280;36921;49.006;9.292;2023-02-03T04:41:20;99964.84;;;5.42;100.00
50933;BME280;36921;49.006;9.292;2023-02-03T04:43:45;99964.16;;;5.40;100.00
50933;BME280;36921;49.006;9.292;2023-02-03T04:46:10;99962.03;;;5.43;100.00
50933;BME280;36921;49.006;9.292;2023-02-03T04:48:36;99936.63;;;5.38;100.00
50933;BME280;36921;49.006;9.292;2023-02-03T04:51:07;99946.34;;;5.48;100.00
50933;BME280;36921;49.006;9.292;2023-02-03T04:53:33;99962.88;;;5.44;100.00
50933;BME280;36921;49.006;9.292;2023-02-03T04:55:58;99960.19;;;5.34;100.00
50933;BME280;36921;49.006;9.292;2023-02-03T04:58:24;99946.50;;;5.27;100.00
50933;BME280;36921;49.006;9.292;2023-02-03T05:00:51;99953.84;;;5.25;100.00
50933;BME280;36921;49.006;9.292;2023-02-03T05:03:16;99956.94;;;5.21;100.00
50933;BME280;36921;49.006;9.292;2023-02-03T05:05:42;99984.63;;;5.31;100.00
50933;BME280;36921;49.006;9.292;2023-02-03T05:08:07;99969.66;;;5.19;100.00
50933;BME280;36921;49.006;9.292;2023-02-03T05:10:32;99991.56;;;5.24;100.00
50933;BME280;36921;49.006;9.292;2023-02-03T05:12:58;99971.34;;;5.20;100.00
50933;BME280;36921;49.006;9.292;2023-02-03T05:15:23;99960.91;;;5.17;100.00
50933;BME280;36921;49.006;9.292;2023-02-03T05:17:51;99991.81;;;5.31;100.00
50933;BME280;36921;49.006;9.292;2023-02-03T05:20:17;99970.50;;;5.19;100.00
50933;BME280;36921;49.006;9.292;2023-02-03T05:22:42;99940.69;;;5.13;100.00
50933;BME280;36921;49.006;9.292;2023-02-03T05:25:09;99943.38;;;5.22;100.00
50933;BME280;36921;49.006;9.292;2023-02-03T05:27:37;99971.19;;;5.31;100.00
50933;BME280;36921;49.006;9.292;2023-02-03T05:30:03;99983.78;;;5.31;100.00
50933;BME280;36921;49.006;9.292;2023-02-03T05:32:29;99966.81;;;5.11;100.00
50933;BME280;36921;49.006;9.292;2023-02-03T05:34:54;99976.16;;;5.16;100.00
50933;BME280;36921;49.006;9.292;2023-02-03T05:37:19;99969.66;;;5.09;100.00
50933;BME280;36921;49.006;9.292;2023-02-03T05:39:44;99983.63;;;5.13;100.00
50933;BME280;36921;49.006;9.292;2023-02-03T05:42:10;99964.25;;;4.99;100.00
50933;BME280;36921;49.006;9.292;2023-02-03T05:44:35;99973.03;;;5.11;100.00
50933;BME280;36921;49.006;9.292;2023-02-03T05:47:00;99952.72;;;5.09;100.00
50933;BME280;36921;49.006;9.292;2023-02-03T05:49:26;99968.81;;;5.09;100.00
50933;BME280;36921;49.006;9.292;2023-02-03T05:51:52;99962.88;;;5.15;100.00
50933;BME280;36921;49.006;9.292;2023-02-03T05:54:18;99961.88;;;5.16;100.00
50933;BME280;36921;49.006;9.292;2023-02-03T05:56:44;99986.59;;;5.19;100.00
50933;BME280;36921;49.006;9.292;2023-02-03T05:59:09;99980.09;;;5.12;100.00
50933;BME280;36921;49.006;9.292;2023-02-03T06:01:35;99972.34;;;5.19;100.00
50933;BME280;36921;49.006;9.292;2023-02-03T06:04:01;99971.34;;;5.10;100.00
50933;BME280;36921;49.006;9.292;2023-02-03T06:06:27;99979.53;;;5.18;100.00
50933;BME280;36921;49.006;9.292;2023-02-03T06:08:59;99976.00;;;5.18;100.00
50933;BME280;36921;49.006;9.292;2023-02-03T06:11:25;99965.44;;;5.16;100.00
50933;BME280;36921;49.006;9.292;2023-02-03T06:13:50;99930.66;;;4.86;100.00
50933;BME280;36921;49.006;9.292;2023-02-03T06:16:15;99959.91;;;4.98;100.00
50933;BME280;36921;49.006;9.292;2023-02-03T06:18:41;99991.53;;;5.14;100.00
50933;BME280;36921;49.006;9.292;2023-02-03T06:21:06;99972.31;;;4.99;100.00
50933;BME280;36921;49.006;9.292;2023-02-03T06:23:32;99981.22;;;5.10;100.00
50933;BME280;36921;49.006;9.292;2023-02-03T06:25:57;99979.25;;;5.12;100.00
50933;BME280;36921;49.006;9.292;2023-02-03T06:28:25;99957.22;;;4.98;100.00
50933;BME280;36921;49.006;9.292;2023-02-03T06:30:51;99964.97;;;5.01;100.00
50933;BME280;36921;49.006;9.292;2023-02-03T06:33:20;99956.78;;;5.03;100.00
50933;BME280;36921;49.006;9.292;2023-02-03T06:35:46;99937.72;;;4.96;100.00
50933;BME280;36921;49.006;9.292;2023-02-03T06:38:11;99958.78;;;5.01;100.00
50933;BME280;36921;49.006;9.292;2023-02-03T06:40:36;99950.16;;;5.07;100.00
50933;BME280;36921;49.006;9.292;2023-02-03T06:43:01;99948.72;;;5.03;100.00
50933;BME280;36921;49.006;9.292;2023-02-03T06:45:27;99940.56;;;5.04;100.00
50933;BME280;36921;49.006;9.292;2023-02-03T06:47:52;99951.00;;;4.98;100.00
50933;BME280;36921;49.006;9.292;2023-02-03T06:50:17;99954.09;;;5.03;100.00
50933;BME280;36921;49.006;9.292;2023-02-03T06:52:43;99958.91;;;4.99;100.00
50933;BME280;36921;49.006;9.292;2023-02-03T06:55:08;99969.63;;;4.99;100.00
50933;BME280;36921;49.006;9.292;2023-02-03T06:57:45;99956.06;;;4.91;100.00
50933;BME280;36921;49.006;9.292;2023-02-03T07:00:13;99959.47;;;4.93;100.00
50933;BME280;36921;49.006;9.292;2023-02-03T07:02:39;99958.06;;;4.99;100.00
50933;BME280;36921;49.006;9.292;2023-02-03T07:05:05;99956.22;;;4.99;100.00
50933;BME280;36921;49.006;9.292;2023-02-03T07:07:30;99949.28;;;4.97;100.00
50933;BME280;36921;49.006;9.292;2023-02-03T07:09:57;99954.97;;;5.03;100.00
50933;BME280;36921;49.006;9.292;2023-02-03T07:12:22;99927.84;;;4.97;100.00
50933;BME280;36921;49.006;9.292;2023-02-03T07:14:47;99937.59;;;4.98;100.00
50933;BME280;36921;49.006;9.292;2023-02-03T07:17:13;99912.88;;;4.94;100.00
50933;BME280;36921;49.006;9.292;2023-02-03T07:19:38;99935.34;;;5.13;100.00
50933;BME280;36921;49.006;9.292;2023-02-03T07:22:03;99902.44;;;4.91;100.00
50933;BME280;36921;49.006;9.292;2023-02-03T07:24:28;99936.47;;;5.10;100.00
50933;BME280;36921;49.006;9.292;2023-02-03T07:26:54;99944.81;;;5.17;100.00
50933;BME280;36921;49.006;9.292;2023-02-03T07:29:19;99947.63;;;5.25;100.00
50933;BME280;36921;49.006;9.292;2023-02-03T07:31:44;99918.38;;;5.02;100.00
50933;BME280;36921;49.006;9.292;2023-02-03T07:34:10;99961.59;;;5.28;100.00
50933;BME280;36921;49.006;9.292;2023-02-03T07:36:35;99972.34;;;5.28;100.00
50933;BME280;36921;49.006;9.292;2023-02-03T07:39:00;99987.19;;;5.33;100.00
50933;BME280;36921;49.006;9.292;2023-02-03T07:41:25;99976.13;;;5.26;100.00
50933;BME280;36921;49.006;9.292;2023-02-03T07:43:51;99988.16;;;5.41;100.00
50933;BME280;36921;49.006;9.292;2023-02-03T07:46:16;99989.00;;;5.42;100.00
50933;BME280;36921;49.006;9.292;2023-02-03T07:48:41;99971.50;;;5.38;100.00
50933;BME280;36921;49.006;9.292;2023-02-03T07:51:07;99951.88;;;5.27;100.00
50933;BME280;36921;49.006;9.292;2023-02-03T07:53:32;99960.47;;;5.41;100.00
50933;BME280;36921;49.006;9.292;2023-02-03T07:56:01;99996.47;;;5.58;100.00
50933;BME280;36921;49.006;9.292;2023-02-03T07:58:27;99989.44;;;5.57;100.00
50933;BME280;36921;49.006;9.292;2023-02-03T08:00:53;99965.28;;;5.47;100.00
50933;BME280;36921;49.006;9.292;2023-02-03T08:03:18;99991.97;;;5.58;100.00
50933;BME280;36921;49.006;9.292;2023-02-03T08:05:43;99987.47;;;5.59;100.00
50933;BME280;36921;49.006;9.292;2023-02-03T08:08:09;99990.94;;;5.79;100.00
50933;BME280;36921;49.006;9.292;2023-02-03T08:10:34;99955.53;;;5.56;100.00
50933;BME280;36921;49.006;9.292;2023-02-03T08:12:59;99983.19;;;5.85;100.00
50933;BME280;36921;49.006;9.292;2023-02-03T08:15:24;100004.25;;;5.90;100.00
50933;BME280;36921;49.006;9.292;2023-02-03T08:17:51;99998.75;;;5.82;100.00
50933;BME280;36921;49.006;9.292;2023-02-03T08:20:17;100007.47;;;5.84;100.00
50933;BME280;36921;49.006;9.292;2023-02-03T08:22:42;99986.03;;;5.74;100.00
50933;BME280;36921;49.006;9.292;2023-02-03T08:25:08;99968.50;;;5.70;100.00
50933;BME280;36921;49.006;9.292;2023-02-03T08:27:33;99965.94;;;5.78;100.00
50933;BME280;36921;49.006;9.292;2023-02-03T08:29:59;99994.09;;;5.93;100.00
50933;BME280;36921;49.006;9.292;2023-02-03T08:32:25;99996.78;;;5.93;100.00
50933;BME280;36921;49.006;9.292;2023-02-03T08:34:51;100000.97;;;5.86;100.00
50933;BME280;36921;49.006;9.292;2023-02-03T08:37:18;100016.84;;;5.89;100.00
50933;BME280;36921;49.006;9.292;2023-02-03T08:39:45;100007.91;;;5.89;100.00
50933;BME280;36921;49.006;9.292;2023-02-03T08:42:11;100010.44;;;6.10;100.00
50933;BME280;36921;49.006;9.292;2023-02-03T08:44:37;99994.44;;;6.18;100.00
50933;BME280;36921;49.006;9.292;2023-02-03T08:47:06;99980.03;;;6.09;100.00
50933;BME280;36921;49.006;9.292;2023-02-03T08:49:32;99988.09;;;6.09;100.00
50933;BME280;36921;49.006;9.292;2023-02-03T08:52:00;99995.03;;;6.02;100.00
50933;BME280;36921;49.006;9.292;2023-02-03T08:54:25;99984.44;;;6.10;100.00
50933;BME280;36921;49.006;9.292;2023-02-03T08:56:51;99988.81;;;6.11;100.00
50933;BME280;36921;49.006;9.292;2023-02-03T08:59:16;99977.34;;;6.19;100.00
50933;BME280;36921;49.006;9.292;2023-02-03T09:01:42;99976.44;;;6.28;100.00
50933;BME280;36921;49.006;9.292;2023-02-03T09:04:13;99992.41;;;6.40;100.00
50933;BME280;36921;49.006;9.292;2023-02-03T09:06:39;99968.50;;;6.36;100.00
50933;BME280;36921;49.006;9.292;2023-02-03T09:09:05;99978.88;;;6.31;100.00
50933;BME280;36921;49.006;9.292;2023-02-03T09:11:30;99970.41;;;6.26;100.00
50933;BME280;36921;49.006;9.292;2023-02-03T09:13:56;99981.34;;;6.43;100.00
50933;BME280;36921;49.006;9.292;2023-02-03T09:16:23;99988.75;;;6.68;100.00
50933;BME280;36921;49.006;9.292;2023-02-03T09:18:49;99988.59;;;6.97;100.00
50933;BME280;36921;49.006;9.292;2023-02-03T09:21:15;99990.31;;;6.89;100.00
50933;BME280;36921;49.006;9.292;2023-02-03T09:23:42;99998.91;;;6.74;100.00
50933;BME280;36921;49.006;9.292;2023-02-03T09:26:13;100007.06;;;6.55;100.00
50933;BME280;36921;49.006;9.292;2023-02-03T09:28:39;100008.25;;;6.43;100.00
50933;BME280;36921;49.006;9.292;2023-02-03T09:31:09;100004.47;;;6.26;100.00
50933;BME280;36921;49.006;9.292;2023-02-03T09:33:36;100014.19;;;6.36;100.00
50933;BME280;36921;49.006;9.292;2023-02-03T09:36:01;100002.34;;;6.29;100.00
50933;BME280;36921;49.006;9.292;2023-02-03T09:38:28;100010.00;;;6.24;100.00
50933;BME280;36921;49.006;9.292;2023-02-03T09:40:58;99991.13;;;6.34;100.00
50933;BME280;36921;49.006;9.292;2023-02-03T09:43:36;99994.38;;;6.38;100.00
50933;BME280;36921;49.006;9.292;2023-02-03T09:46:16;99993.97;;;6.32;100.00
50933;BME280;36921;49.006;9.292;2023-02-03T09:48:47;100000.63;;;6.28;100.00
50933;BME280;36921;49.006;9.292;2023-02-03T09:51:20;99988.75;;;6.31;100.00
50933;BME280;36921;49.006;9.292;2023-02-03T09:53:52;99972.78;;;6.29;100.00
50933;BME280;36921;49.006;9.292;2023-02-03T09:56:29;99972.31;;;6.34;100.00
50933;BME280;36921;49.006;9.292;2023-02-03T09:58:56;99974.66;;;6.47;100.00
50933;BME280;36921;49.006;9.292;2023-02-03T10:01:23;99960.97;;;6.50;100.00
50933;BME280;36921;49.006;9.292;2023-02-03T10:06:32;99983.94;;;6.34;100.00
50933;BME280;36921;49.006;9.292;2023-02-03T10:09:10;99992.81;;;6.45;100.00
50933;BME280;36921;49.006;9.292;2023-02-03T10:17:42;100007.63;;;6.49;100.00
50933;BME280;36921;49.006;9.292;2023-02-03T10:20:15;100005.13;;;6.47;100.00
50933;BME280;36921;49.006;9.292;2023-02-03T10:22:56;100004.25;;;6.47;100.00
50933;BME280;36921;49.006;9.292;2023-02-03T10:25:58;100003.81;;;6.51;100.00
50933;BME280;36921;49.006;9.292;2023-02-03T10:28:50;100012.56;;;6.63;100.00
50933;BME280;36921;49.006;9.292;2023-02-03T10:31:19;99996.63;;;6.79;100.00
50933;BME280;36921;49.006;9.292;2023-02-03T10:33:46;99993.53;;;6.74;100.00
50933;BME280;36921;49.006;9.292;2023-02-03T10:36:30;99984.75;;;6.72;100.00
50933;BME280;36921;49.006;9.292;2023-02-03T10:39:30;99989.44;;;6.70;100.00
50933;BME280;36921;49.006;9.292;2023-02-03T10:41:57;99997.00;;;6.57;100.00
50933;BME280;36921;49.006;9.292;2023-02-03T10:45:13;99999.09;;;6.63;100.00
50933;BME280;36921;49.006;9.292;2023-02-03T10:49:43;99986.69;;;6.80;100.00
50933;BME280;36921;49.006;9.292;2023-02-03T10:52:24;99985.94;;;6.88;100.00
50933;BME280;36921;49.006;9.292;2023-02-03T10:54:49;99971.34;;;6.90;100.00
50933;BME280;36921;49.006;9.292;2023-02-03T10:57:15;99969.94;;;6.86;100.00
50933;BME280;36921;49.006;9.292;2023-02-03T10:59:46;99952.25;;;6.84;100.00
50933;BME280;36921;49.006;9.292;2023-02-03T11:02:22;99970.81;;;6.87;100.00
50933;BME280;36921;49.006;9.292;2023-02-03T11:07:43;99929.06;;;6.83;100.00
50933;BME280;36921;49.006;9.292;2023-02-03T11:13:18;99909.78;;;7.23;100.00
50933;BME280;36921;49.006;9.292;2023-02-03T11:18:39;99930.84;;;6.92;100.00
50933;BME280;36921;49.006;9.292;2023-02-03T11:21:07;99949.78;;;6.72;100.00
50933;BME280;36921;49.006;9.292;2023-02-03T11:23:33;99956.09;;;6.63;100.00
50933;BME280;36921;49.006;9.292;2023-02-03T11:26:08;99950.47;;;6.47;100.00
50933;BME280;36921;49.006;9.292;2023-02-03T11:28:34;99939.63;;;6.39;100.00
50933;BME280;36921;49.006;9.292;2023-02-03T11:31:00;99963.88;;;6.29;100.00
50933;BME280;36921;49.006;9.292;2023-02-03T11:33:26;99949.00;;;6.34;100.00
50933;BME280;36921;49.006;9.292;2023-02-03T11:36:01;99947.84;;;6.37;100.00
50933;BME280;36921;49.006;9.292;2023-02-03T11:38:32;99924.41;;;6.29;100.00
50933;BME280;36921;49.006;9.292;2023-02-03T11:41:01;99927.63;;;6.33;100.00
50933;BME280;36921;49.006;9.292;2023-02-03T11:43:27;99906.53;;;6.38;100.00
50933;BME280;36921;49.006;9.292;2023-02-03T11:45:59;99905.66;;;6.47;100.00
50933;BME280;36921;49.006;9.292;2023-02-03T11:48:28;99896.28;;;6.51;100.00
50933;BME280;36921;49.006;9.292;2023-02-03T12:13:04;99900.94;;;6.77;100.00
50933;BME280;36921;49.006;9.292;2023-02-03T12:21:42;99901.47;;;6.80;100.00
50933;BME280;36921;49.006;9.292;2023-02-03T12:27:04;99862.75;;;6.73;100.00
50933;BME280;36921;49.006;9.292;2023-02-03T12:29:48;99862.56;;;6.75;100.00
50933;BME280;36921;49.006;9.292;2023-02-03T12:37:49;99846.59;;;6.91;100.00
50933;BME280;36921;49.006;9.292;2023-02-03T12:42:55;99830.06;;;7.04;100.00
50933;BME280;36921;49.006;9.292;2023-02-03T12:45:27;99818.97;;;7.07;100.00
50933;BME280;36921;49.006;9.292;2023-02-03T12:48:04;99818.97;;;7.07;100.00
50933;BME280;36921;49.006;9.292;2023-02-03T12:53:18;99816.94;;;6.83;100.00
50933;BME280;36921;49.006;9.292;2023-02-03T12:56:02;99812.09;;;6.87;100.00
50933;BME280;36921;49.006;9.292;2023-02-03T12:58:48;99816.47;;;6.88;100.00
50933;BME280;36921;49.006;9.292;2023-02-03T13:01:53;99819.75;;;6.99;100.00
50933;BME280;36921;49.006;9.292;2023-02-03T13:04:42;99813.38;;;7.00;100.00
50933;BME280;36921;49.006;9.292;2023-02-03T13:10:05;99802.09;;;6.97;100.00
50933;BME280;36921;49.006;9.292;2023-02-03T13:12:50;99796.50;;;6.90;100.00
50933;BME280;36921;49.006;9.292;2023-02-03T13:20:31;99784.88;;;6.90;100.00
50933;BME280;36921;49.006;9.292;2023-02-03T13:23:03;99782.25;;;6.98;100.00
50933;BME280;36921;49.006;9.292;2023-02-03T13:29:34;99764.91;;;6.92;100.00
50933;BME280;36921;49.006;9.292;2023-02-03T13:32:23;99760.03;;;6.96;100.00
50933;BME280;36921;49.006;9.292;2023-02-03T13:43:05;99716.31;;;6.94;100.00
50933;BME280;36921;49.006;9.292;2023-02-03T13:45:49;99734.53;;;7.00;100.00
50933;BME280;36921;49.006;9.292;2023-02-03T13:48:30;99747.47;;;7.05;100.00
50933;BME280;36921;49.006;9.292;2023-02-03T13:53:33;99746.59;;;6.96;100.00
50933;BME280;36921;49.006;9.292;2023-02-03T13:56:01;99753.69;;;6.97;100.00
50933;BME280;36921;49.006;9.292;2023-02-03T13:58:32;99743.22;;;6.94;100.00
50933;BME280;36921;49.006;9.292;2023-02-03T14:05:53;99742.34;;;7.11;100.00
50933;BME280;36921;49.006;9.292;2023-02-03T14:19:00;99756.44;;;7.05;100.00
50933;BME280;36921;49.006;9.292;2023-02-03T14:21:28;99751.97;;;6.96;100.00
50933;BME280;36921;49.006;9.292;2023-02-03T14:24:04;99737.88;;;7.02;100.00
50933;BME280;36921;49.006;9.292;2023-02-03T14:26:35;99720.22;;;6.99;100.00
50933;BME280;36921;49.006;9.292;2023-02-03T14:29:03;99737.97;;;7.10;100.00
50933;BME280;36921;49.006;9.292;2023-02-03T14:31:30;99760.47;;;7.09;100.00
50933;BME280;36921;49.006;9.292;2023-02-03T14:34:08;99746.66;;;7.04;100.00
50933;BME280;36921;49.006;9.292;2023-02-03T14:36:42;99764.78;;;7.02;100.00
50933;BME280;36921;49.006;9.292;2023-02-03T14:50:01;99785.31;;;7.03;100.00
50933;BME280;36921;49.006;9.292;2023-02-03T14:58:03;99781.63;;;7.04;100.00
50933;BME280;36921;49.006;9.292;2023-02-03T15:00:32;99799.47;;;7.05;100.00
50933;BME280;36921;49.006;9.292;2023-02-03T15:05:39;99791.59;;;7.12;100.00
50933;BME280;36921;49.006;9.292;2023-02-03T15:11:32;99785.00;;;7.06;100.00
50933;BME280;36921;49.006;9.292;2023-02-03T15:16:43;99807.75;;;7.12;100.00
50933;BME280;36921;49.006;9.292;2023-02-03T15:19:18;99813.97;;;7.12;100.00
50933;BME280;36921;49.006;9.292;2023-02-03T15:21:45;99804.53;;;7.08;100.00
50933;BME280;36921;49.006;9.292;2023-02-03T15:24:15;99804.78;;;6.97;100.00
50933;BME280;36921;49.006;9.292;2023-02-03T15:27:19;99810.63;;;6.92;100.00
50933;BME280;36921;49.006;9.292;2023-02-03T15:29:46;99808.16;;;6.81;100.00
50933;BME280;36921;49.006;9.292;2023-02-03T15:32:36;99812.81;;;6.71;100.00
50933;BME280;36921;49.006;9.292;2023-02-03T15:35:02;99815.94;;;6.66;100.00